Aviation Digital Data Service (ADDS)

Output produced by METARs form (1637 UTC 18 April 2015)
found at http://aviationweather.gov/adds/metars/
 
KVQQ 181520Z 1815/1912 27006KT P6SM BKN015 
     TEMPO 1815/1816 BKN015 
     FM181600 24008KT P6SM SCT025 BKN040 
     TEMPO 1816/1820 BKN025 BKN040 
     FM182000 24008KT P6SM VCSH SCT030 BKN050 
     FM190600 00000KT 5SM BR BKN050 OVC100